Aviation Digital Data Service (ADDS)

Output produced by METARs form (1719 UTC 22 September 2019)
found at http://www.aviationweather.gov/metar/data/
 
Forecast for: ZSPD (SHANGHAI/PUDONG , CN)
Text: TAF ZSPD 221520Z 2218/2318 34006MPS 6000 BKN015 TX26/2306Z TN18/2220Z
Forecast period: 1800 UTC 22 September 2019 to 1800 UTC 23 September 2019
Forecast type: FROM: standard forecast or significant change
Winds: from the NNW (340 degrees) at 14 MPH (12 knots; 6.2 m/s)
Visibility: 4 miles (6 km)
Ceiling: 1500 feet AGL
Clouds: broken clouds at 1500 feet AGL
Weather: no significant weather forecast for this period